createdAt,value
2019-05-19T00:02:15.649Z,14.10
2019-05-19T00:04:44.154Z,13.77
2019-05-19T00:07:12.732Z,13.77
2019-05-19T00:09:41.325Z,13.20
2019-05-19T00:12:09.869Z,13.40
2019-05-19T00:14:38.448Z,13.43
2019-05-19T00:17:07.001Z,12.57
2019-05-19T00:19:35.723Z,12.43
2019-05-19T00:22:04.329Z,11.63
2019-05-19T00:24:32.849Z,13.23
2019-05-19T00:27:01.484Z,12.10
2019-05-19T00:29:30.058Z,12.10
2019-05-19T00:31:58.619Z,12.93
2019-05-19T00:34:27.192Z,12.80
2019-05-19T00:36:55.736Z,12.80
2019-05-19T00:39:24.264Z,13.50
2019-05-19T00:41:52.823Z,12.67
2019-05-19T00:44:21.472Z,12.47
2019-05-19T00:46:50.103Z,14.17
2019-05-19T00:49:18.866Z,12.90
2019-05-19T00:51:47.395Z,13.53
2019-05-19T00:54:15.980Z,12.37
2019-05-19T00:56:44.873Z,12.63
2019-05-19T00:59:13.909Z,11.93
2019-05-19T01:01:42.457Z,11.87
2019-05-19T01:04:11.035Z,12.97
2019-05-19T01:06:39.595Z,12.83
2019-05-19T01:09:08.232Z,12.53
2019-05-19T01:11:36.795Z,13.07
2019-05-19T01:14:05.533Z,12.83
2019-05-19T01:16:34.107Z,12.23
2019-05-19T01:19:02.753Z,12.70
2019-05-19T01:21:31.950Z,11.93
2019-05-19T01:24:00.491Z,12.57
2019-05-19T01:26:29.058Z,13.23
2019-05-19T01:28:57.654Z,13.00
2019-05-19T01:31:26.325Z,12.50
2019-05-19T01:33:54.865Z,12.43
2019-05-19T01:36:23.448Z,12.47
2019-05-19T01:38:52.009Z,12.17
2019-05-19T01:41:20.610Z,13.03
2019-05-19T01:43:49.164Z,13.40
2019-05-19T01:46:17.744Z,13.60
2019-05-19T01:48:46.320Z,13.20
2019-05-19T01:51:14.905Z,12.57
2019-05-19T01:53:43.460Z,13.20
2019-05-19T01:56:12.061Z,13.50
2019-05-19T01:58:40.639Z,13.83
2019-05-19T02:01:09.201Z,13.17
2019-05-19T02:03:37.766Z,13.17
2019-05-19T02:06:06.358Z,12.57
2019-05-19T02:08:34.916Z,12.97
2019-05-19T02:11:03.581Z,12.87
2019-05-19T02:13:32.141Z,12.13
2019-05-19T02:16:00.741Z,12.07
2019-05-19T02:18:29.306Z,13.87
2019-05-19T02:20:57.883Z,13.53
2019-05-19T02:23:26.437Z,13.43
2019-05-19T02:25:55.022Z,13.20
2019-05-19T02:28:23.626Z,12.90
2019-05-19T02:30:52.195Z,12.20
2019-05-19T02:33:20.757Z,11.90
2019-05-19T02:35:49.334Z,13.13
2019-05-19T02:38:17.906Z,13.97
2019-05-19T02:40:52.250Z,14.20
2019-05-19T02:43:22.268Z,13.47
2019-05-19T02:45:53.915Z,13.27
2019-05-19T02:48:23.361Z,13.93
2019-05-19T02:50:53.866Z,13.50
2019-05-19T02:53:23.768Z,12.80
2019-05-19T02:55:53.592Z,14.07
2019-05-19T02:58:22.494Z,13.57
2019-05-19T03:00:51.065Z,13.83
2019-05-19T03:03:19.642Z,14.20
2019-05-19T03:05:48.220Z,14.47
2019-05-19T03:08:16.790Z,13.67
2019-05-19T03:10:45.611Z,12.83
2019-05-19T03:13:14.199Z,13.33
2019-05-19T03:15:42.812Z,13.83
2019-05-19T03:18:11.306Z,13.67
2019-05-19T03:20:39.875Z,14.00
2019-05-19T03:23:08.449Z,15.17
2019-05-19T03:25:37.017Z,13.83
2019-05-19T03:28:05.608Z,13.30
2019-05-19T03:30:53.665Z,15.13
2019-05-19T03:33:23.884Z,13.90
2019-05-19T03:35:52.458Z,14.00
2019-05-19T03:38:21.025Z,14.73
2019-05-19T03:40:49.607Z,14.83
2019-05-19T03:43:18.196Z,14.90
2019-05-19T03:45:46.741Z,14.87
2019-05-19T03:48:15.332Z,14.80
2019-05-19T03:50:43.875Z,14.23
2019-05-19T03:53:12.448Z,13.80
2019-05-19T03:55:41.075Z,13.40
2019-05-19T03:58:09.662Z,13.80
2019-05-19T04:00:38.225Z,14.77
2019-05-19T04:03:06.796Z,14.17
2019-05-19T04:05:35.351Z,13.97
2019-05-19T04:08:03.948Z,14.20
2019-05-19T04:10:32.508Z,15.20
2019-05-19T04:13:01.073Z,15.30
2019-05-19T04:15:29.554Z,14.00
2019-05-19T04:17:58.120Z,14.53
2019-05-19T04:20:26.680Z,14.70
2019-05-19T04:22:55.253Z,14.27
2019-05-19T04:25:23.744Z,14.83
2019-05-19T04:27:52.328Z,15.93
2019-05-19T04:30:21.127Z,14.50
2019-05-19T04:32:49.705Z,15.30
2019-05-19T04:35:18.267Z,14.73
2019-05-19T04:37:46.821Z,15.80
2019-05-19T04:40:15.528Z,15.33
2019-05-19T04:42:44.027Z,15.20
2019-05-19T04:45:12.680Z,14.90
2019-05-19T04:47:41.250Z,14.83
2019-05-19T04:50:10.165Z,14.50
2019-05-19T04:52:38.720Z,14.00
2019-05-19T04:55:07.649Z,13.90
2019-05-19T04:57:36.879Z,14.37
2019-05-19T05:00:07.105Z,15.07
2019-05-19T05:02:35.681Z,14.03
2019-05-19T05:05:06.466Z,13.97
2019-05-19T05:07:35.037Z,14.53
2019-05-19T05:10:04.150Z,13.80
2019-05-19T05:12:32.733Z,14.07
2019-05-19T05:15:01.292Z,13.80
2019-05-19T05:17:29.846Z,13.93
2019-05-19T05:19:58.438Z,14.00
2019-05-19T05:22:26.999Z,15.53
2019-05-19T05:24:55.585Z,13.87
2019-05-19T05:27:24.190Z,13.77
2019-05-19T05:29:52.749Z,13.97
2019-05-19T05:32:21.306Z,14.67
2019-05-19T05:34:49.905Z,13.97
2019-05-19T05:37:18.468Z,14.63
2019-05-19T05:39:47.068Z,14.03
2019-05-19T05:42:15.620Z,14.07
2019-05-19T05:44:44.196Z,14.10
2019-05-19T05:47:12.917Z,13.47
2019-05-19T05:49:41.563Z,13.77
2019-05-19T05:52:10.063Z,13.23
2019-05-19T05:54:38.648Z,14.07
2019-05-19T05:57:07.202Z,13.47
2019-05-19T05:59:35.757Z,13.10
2019-05-19T06:02:04.333Z,14.23
2019-05-19T06:04:32.902Z,13.23
2019-05-19T06:07:01.476Z,12.90
2019-05-19T06:09:30.058Z,13.23
2019-05-19T06:11:58.627Z,13.53
2019-05-19T06:14:27.201Z,13.80
2019-05-19T06:16:55.786Z,13.57
2019-05-19T06:19:24.345Z,12.57
2019-05-19T06:21:53.114Z,14.23
2019-05-19T06:24:21.718Z,12.60
2019-05-19T06:26:50.285Z,13.00
2019-05-19T06:29:18.853Z,12.93
2019-05-19T06:31:47.434Z,12.77
2019-05-19T06:34:15.999Z,12.67
2019-05-19T06:36:44.565Z,13.20
2019-05-19T06:39:13.198Z,13.30
2019-05-19T06:41:41.764Z,13.10
2019-05-19T06:44:10.330Z,13.30
2019-05-19T06:46:38.906Z,12.27
2019-05-19T06:49:07.455Z,11.60
2019-05-19T06:51:36.033Z,12.87
2019-05-19T06:54:04.731Z,12.50
2019-05-19T06:56:33.340Z,12.60
2019-05-19T06:59:02.053Z,12.63
2019-05-19T07:01:30.681Z,12.17
2019-05-19T07:03:59.257Z,11.70
2019-05-19T07:06:27.839Z,12.33
2019-05-19T07:08:56.443Z,11.93
2019-05-19T07:11:25.028Z,12.10
2019-05-19T07:13:53.604Z,11.83
2019-05-19T07:16:22.187Z,11.40
2019-05-19T07:18:50.810Z,13.30
2019-05-19T07:21:19.330Z,11.17
2019-05-19T07:23:47.891Z,11.53
2019-05-19T07:26:16.453Z,11.37
2019-05-19T07:28:44.964Z,12.47
2019-05-19T07:31:13.587Z,11.77
2019-05-19T07:33:42.131Z,11.30
2019-05-19T07:36:10.788Z,10.53
2019-05-19T07:38:39.378Z,10.60
2019-05-19T07:41:07.936Z,12.30
2019-05-19T07:43:36.539Z,11.17
2019-05-19T07:46:05.195Z,12.53
2019-05-19T07:48:33.884Z,11.87
2019-05-19T07:51:02.482Z,10.00
2019-05-19T07:53:42.291Z,11.37
2019-05-19T07:56:01.291Z,11.27
2019-05-19T07:58:29.865Z,10.93
2019-05-19T08:00:58.446Z,10.07
2019-05-19T08:03:27.009Z,11.77
2019-05-19T08:05:57.140Z,10.97
2019-05-19T08:08:25.732Z,10.57
2019-05-19T08:10:54.439Z,11.10
2019-05-19T08:13:23.101Z,10.93
2019-05-19T08:15:51.782Z,10.67
2019-05-19T08:18:20.554Z,10.97
2019-05-19T08:20:49.100Z,10.93
2019-05-19T08:23:17.664Z,13.97
2019-05-19T08:25:46.289Z,14.10
2019-05-19T08:28:14.829Z,12.90
2019-05-19T08:30:43.430Z,14.00
2019-05-19T08:33:12.010Z,14.00
2019-05-19T08:35:40.609Z,13.20
2019-05-19T08:38:09.135Z,13.57
2019-05-19T08:40:37.694Z,12.77
2019-05-19T08:43:06.279Z,12.10
2019-05-19T08:45:34.851Z,11.87
2019-05-19T08:48:03.499Z,12.37
2019-05-19T08:50:32.069Z,12.90
2019-05-19T08:53:00.797Z,12.70
2019-05-19T08:55:29.349Z,13.40
2019-05-19T08:57:57.905Z,13.50
2019-05-19T09:00:26.485Z,12.77
2019-05-19T09:02:55.068Z,12.80
2019-05-19T09:05:23.604Z,11.70
2019-05-19T09:07:52.164Z,13.03
2019-05-19T09:10:20.738Z,12.43
2019-05-19T09:12:49.303Z,11.60
2019-05-19T09:15:17.933Z,11.83
2019-05-19T09:17:46.492Z,13.07
2019-05-19T09:20:15.252Z,13.10
2019-05-19T09:22:43.840Z,12.70
2019-05-19T09:25:12.557Z,12.57
2019-05-19T09:27:41.121Z,12.77
2019-05-19T09:30:11.092Z,11.80
2019-05-19T09:32:39.649Z,11.43
2019-05-19T09:35:08.680Z,12.13
2019-05-19T09:37:37.249Z,11.17
2019-05-19T09:40:07.655Z,11.10
2019-05-19T09:42:36.225Z,11.50
2019-05-19T09:45:08.759Z,11.00
2019-05-19T09:47:37.839Z,11.43
2019-05-19T09:50:07.178Z,11.80
2019-05-19T09:52:35.829Z,11.63
2019-05-19T09:55:05.216Z,11.13
2019-05-19T09:57:33.887Z,11.60
2019-05-19T10:00:02.852Z,10.57
2019-05-19T10:02:31.339Z,10.93
2019-05-19T10:04:59.922Z,10.47
2019-05-19T10:07:28.550Z,10.53
2019-05-19T10:10:02.376Z,10.07
2019-05-19T10:12:31.011Z,9.83
2019-05-19T10:14:59.880Z,9.93
2019-05-19T10:17:28.800Z,9.65
2019-05-19T10:19:57.374Z,10.28
2019-05-19T10:22:26.081Z,10.05
2019-05-19T10:25:10.291Z,9.90
2019-05-19T10:27:25.654Z,9.20
2019-05-19T10:29:54.278Z,9.93
2019-05-19T10:32:22.856Z,9.03
2019-05-19T10:34:51.479Z,9.37
2019-05-19T10:37:20.134Z,9.43
2019-05-19T10:39:48.682Z,9.60
2019-05-19T10:42:17.267Z,8.77
2019-05-19T10:44:45.838Z,9.60
2019-05-19T10:47:14.431Z,9.90
2019-05-19T10:49:43.232Z,9.25
2019-05-19T10:52:11.855Z,8.45
2019-05-19T10:54:40.398Z,8.95
2019-05-19T10:57:09.066Z,9.20
2019-05-19T10:59:37.639Z,9.60
2019-05-19T11:02:06.353Z,8.57
2019-05-19T11:04:34.906Z,9.00
2019-05-19T11:07:03.494Z,8.73
2019-05-19T11:09:32.130Z,8.83
2019-05-19T11:12:00.709Z,10.20
2019-05-19T11:14:29.283Z,8.43
2019-05-19T11:16:57.839Z,8.07
2019-05-19T11:19:26.429Z,8.07
2019-05-19T11:21:55.058Z,8.60
2019-05-19T11:24:23.632Z,8.48
2019-05-19T11:26:52.187Z,8.35
2019-05-19T11:29:20.777Z,7.85
2019-05-19T11:31:49.336Z,8.38
2019-05-19T11:34:17.911Z,8.43
2019-05-19T11:36:46.478Z,7.62
2019-05-19T11:39:15.049Z,8.35
2019-05-19T11:41:43.602Z,8.15
2019-05-19T11:44:12.262Z,8.10
2019-05-19T11:46:40.816Z,7.87
2019-05-19T11:49:09.435Z,8.20
2019-05-19T11:51:38.013Z,8.63
2019-05-19T11:54:06.565Z,7.58
2019-05-19T11:56:35.129Z,8.18
2019-05-19T11:59:03.708Z,7.92
2019-05-19T12:01:32.288Z,7.85
2019-05-19T12:04:00.889Z,8.18
2019-05-19T12:06:38.605Z,8.43
2019-05-19T12:08:59.641Z,8.25
2019-05-19T12:11:28.196Z,7.28
2019-05-19T12:13:56.780Z,8.48
2019-05-19T12:16:25.341Z,7.67
2019-05-19T12:18:57.319Z,7.72
2019-05-19T12:21:24.149Z,7.72
2019-05-19T12:23:52.736Z,8.33
2019-05-19T12:26:23.499Z,6.97
2019-05-19T12:28:51.564Z,6.75
2019-05-19T12:31:20.146Z,7.55
2019-05-19T12:33:51.869Z,7.92
2019-05-19T12:36:18.913Z,7.57
2019-05-19T12:38:47.572Z,7.53
2019-05-19T12:41:16.872Z,8.30
2019-05-19T12:43:45.473Z,7.60
2019-05-19T12:46:16.745Z,7.43
2019-05-19T12:48:44.317Z,7.53
2019-05-19T12:51:12.877Z,8.20
2019-05-19T12:53:41.454Z,7.63
2019-05-19T12:56:10.066Z,7.30
2019-05-19T12:58:38.667Z,7.95
2019-05-19T13:01:07.253Z,7.22
2019-05-19T13:03:35.812Z,8.27
2019-05-19T13:06:04.386Z,7.73
2019-05-19T13:08:32.946Z,7.37
2019-05-19T13:11:01.513Z,7.90
2019-05-19T13:13:30.058Z,7.97
2019-05-19T13:15:58.635Z,7.30
2019-05-19T13:18:27.200Z,7.47
2019-05-19T13:20:55.769Z,7.60
2019-05-19T13:23:24.343Z,7.60
2019-05-19T13:25:52.928Z,7.13
2019-05-19T13:28:21.486Z,6.77
2019-05-19T13:30:50.081Z,6.53
2019-05-19T13:33:18.639Z,6.87
2019-05-19T13:35:47.215Z,6.20
2019-05-19T13:38:15.768Z,6.17
2019-05-19T13:40:44.343Z,6.47
2019-05-19T13:43:12.891Z,6.60
2019-05-19T13:45:41.496Z,6.53
2019-05-19T13:48:10.126Z,6.10
2019-05-19T13:50:38.694Z,6.63
2019-05-19T13:53:07.256Z,6.70
2019-05-19T13:55:35.863Z,6.30
2019-05-19T13:58:04.419Z,5.90
2019-05-19T14:00:33.089Z,6.13
2019-05-19T14:03:01.645Z,6.33
2019-05-19T14:05:30.243Z,6.80
2019-05-19T14:07:58.828Z,6.17
2019-05-19T14:10:27.400Z,6.50
2019-05-19T14:12:55.956Z,5.93
2019-05-19T14:15:24.519Z,6.47
2019-05-19T14:17:53.106Z,6.23
2019-05-19T14:20:21.662Z,6.60
2019-05-19T14:22:50.313Z,6.93
2019-05-19T14:25:18.878Z,6.30
2019-05-19T14:27:47.450Z,6.13
2019-05-19T14:30:16.754Z,6.37
2019-05-19T14:32:45.353Z,6.30
2019-05-19T14:35:13.931Z,6.37
2019-05-19T14:37:42.505Z,5.83
2019-05-19T14:40:11.333Z,5.80
2019-05-19T14:42:44.265Z,6.00
2019-05-19T14:45:13.550Z,5.87
2019-05-19T14:47:42.207Z,5.70
2019-05-19T14:50:11.117Z,5.90
2019-05-19T14:52:39.710Z,5.70
2019-05-19T14:55:08.450Z,6.50
2019-05-19T14:57:44.960Z,6.23
2019-05-19T15:00:07.816Z,6.30
2019-05-19T15:02:36.418Z,6.80
2019-05-19T15:05:06.720Z,6.00
2019-05-19T15:07:35.395Z,6.10
2019-05-19T15:10:05.226Z,5.93
2019-05-19T15:12:33.864Z,6.40
2019-05-19T15:15:02.495Z,5.73
2019-05-19T15:17:31.121Z,5.27
2019-05-19T15:19:59.766Z,5.63
2019-05-19T15:22:28.326Z,5.90
2019-05-19T15:24:56.821Z,5.87
2019-05-19T15:27:25.456Z,5.70
2019-05-19T15:29:54.034Z,6.20
2019-05-19T15:32:22.647Z,5.70
2019-05-19T15:34:51.224Z,5.77
2019-05-19T15:37:19.789Z,4.67
2019-05-19T15:39:48.487Z,5.23
2019-05-19T15:42:17.026Z,5.80
2019-05-19T15:44:46.044Z,5.53
2019-05-19T15:47:14.582Z,5.50
2019-05-19T15:49:43.143Z,5.57
2019-05-19T15:52:11.861Z,5.70
2019-05-19T15:54:40.401Z,6.17
2019-05-19T15:57:08.962Z,5.97
2019-05-19T15:59:37.566Z,5.57
2019-05-19T16:02:06.202Z,6.20
2019-05-19T16:04:34.793Z,6.37
2019-05-19T16:07:03.430Z,5.87
2019-05-19T16:09:31.992Z,5.60
2019-05-19T16:12:00.649Z,6.17
2019-05-19T16:14:29.234Z,5.20
2019-05-19T16:16:57.815Z,5.73
2019-05-19T16:19:26.333Z,5.70
2019-05-19T16:21:54.876Z,5.97
2019-05-19T16:24:23.398Z,5.00
2019-05-19T16:26:52.160Z,5.50
2019-05-19T16:29:20.661Z,5.33
2019-05-19T16:31:49.240Z,5.83
2019-05-19T16:34:17.847Z,5.87
2019-05-19T16:36:46.415Z,5.20
2019-05-19T16:39:17.753Z,5.60
2019-05-19T16:41:46.337Z,5.97
2019-05-19T16:44:14.901Z,5.57
2019-05-19T16:46:43.473Z,5.73
2019-05-19T16:49:12.028Z,5.87
2019-05-19T16:51:40.673Z,5.90
2019-05-19T16:54:13.618Z,5.40
2019-05-19T16:56:42.204Z,5.53
2019-05-19T16:59:10.764Z,5.77
2019-05-19T17:01:39.330Z,5.43
2019-05-19T17:04:07.896Z,5.23
2019-05-19T17:06:36.392Z,5.43
2019-05-19T17:09:09.142Z,4.80
2019-05-19T17:11:37.700Z,6.13
2019-05-19T17:14:06.297Z,5.90
2019-05-19T17:16:34.848Z,5.37
2019-05-19T17:19:03.539Z,5.20
2019-05-19T17:21:32.091Z,5.50
2019-05-19T17:24:00.673Z,5.27
2019-05-19T17:26:29.402Z,5.20
2019-05-19T17:29:00.940Z,5.53
2019-05-19T17:31:28.303Z,4.80
2019-05-19T17:33:56.950Z,5.10
2019-05-19T17:36:27.383Z,5.30
2019-05-19T17:38:55.728Z,4.70
2019-05-19T17:41:24.274Z,5.17
2019-05-19T17:43:52.859Z,5.67
2019-05-19T17:46:21.472Z,5.37
2019-05-19T17:48:50.068Z,5.10
2019-05-19T17:51:18.612Z,5.10
2019-05-19T17:53:47.255Z,5.40
2019-05-19T17:56:16.777Z,5.10
2019-05-19T17:58:46.472Z,5.17
2019-05-19T18:01:15.147Z,5.27
2019-05-19T18:03:44.391Z,5.03
2019-05-19T18:06:12.964Z,4.97
2019-05-19T18:08:41.528Z,5.13
2019-05-19T18:11:10.244Z,4.43
2019-05-19T18:13:38.801Z,5.20
2019-05-19T18:16:07.455Z,13.50
2019-05-19T18:18:36.027Z,4.87
2019-05-19T18:21:04.614Z,5.33
2019-05-19T18:23:33.215Z,5.00
2019-05-19T18:26:01.782Z,4.70
2019-05-19T18:28:30.342Z,5.07
2019-05-19T18:30:58.926Z,5.13
2019-05-19T18:33:27.489Z,4.83
2019-05-19T18:35:56.052Z,4.70
2019-05-19T18:38:24.811Z,5.30
2019-05-19T18:40:53.362Z,4.60
2019-05-19T18:43:22.100Z,5.20
2019-05-19T18:45:50.644Z,4.47
2019-05-19T18:48:19.220Z,4.60
2019-05-19T18:50:47.795Z,4.67
2019-05-19T18:53:16.380Z,4.80
2019-05-19T18:55:44.985Z,4.27
2019-05-19T18:58:13.570Z,5.67
2019-05-19T19:00:42.148Z,5.23
2019-05-19T19:03:10.957Z,5.40
2019-05-19T19:05:39.597Z,5.53
2019-05-19T19:08:08.188Z,5.33
2019-05-19T19:10:36.777Z,5.60
2019-05-19T19:13:05.445Z,5.70
2019-05-19T19:15:33.947Z,5.20
2019-05-19T19:18:02.518Z,5.00
2019-05-19T19:20:31.095Z,5.73
2019-05-19T19:22:59.657Z,5.70
2019-05-19T19:25:28.366Z,5.67
2019-05-19T19:27:56.927Z,5.17
2019-05-19T19:30:26.634Z,5.60
2019-05-19T19:32:55.320Z,5.43
2019-05-19T19:35:23.905Z,5.37
2019-05-19T19:37:52.487Z,5.30
2019-05-19T19:40:29.129Z,5.13
2019-05-19T19:42:59.333Z,5.77
2019-05-19T19:45:27.966Z,21.87
2019-05-19T19:47:56.521Z,6.17
2019-05-19T19:50:25.242Z,7.93
2019-05-19T19:52:53.819Z,5.33
2019-05-19T19:55:22.440Z,6.87
2019-05-19T19:57:50.976Z,6.97
2019-05-19T20:00:40.703Z,7.40
2019-05-19T20:03:09.388Z,6.43
2019-05-19T20:05:38.395Z,6.07
2019-05-19T20:08:07.302Z,5.83
2019-05-19T20:10:37.011Z,6.17
2019-05-19T20:13:06.212Z,6.63
2019-05-19T20:15:35.608Z,6.83
2019-05-19T20:18:04.321Z,6.60
2019-05-19T20:20:32.985Z,8.57
2019-05-19T20:23:01.579Z,6.90
2019-05-19T20:25:30.700Z,6.60
2019-05-19T20:27:59.289Z,6.97
2019-05-19T20:30:35.743Z,8.57
2019-05-19T20:32:58.228Z,12.03
2019-05-19T20:35:26.785Z,7.60
2019-05-19T20:37:55.535Z,7.80
2019-05-19T20:40:24.087Z,7.43
2019-05-19T20:42:52.673Z,7.43
2019-05-19T20:45:21.261Z,8.30
2019-05-19T20:47:49.930Z,7.30
2019-05-19T20:50:18.495Z,6.20
2019-05-19T20:52:47.075Z,6.67
2019-05-19T20:55:15.653Z,6.97
2019-05-19T20:57:44.211Z,6.60
2019-05-19T21:00:13.039Z,7.20
2019-05-19T21:02:41.569Z,7.53
2019-05-19T21:05:10.409Z,7.30
2019-05-19T21:07:38.978Z,7.50
2019-05-19T21:10:08.084Z,8.53
2019-05-19T21:12:36.655Z,8.63
2019-05-19T21:15:06.413Z,8.90
2019-05-19T21:17:35.051Z,8.40
2019-05-19T21:20:05.182Z,9.30
2019-05-19T21:22:33.821Z,9.23
2019-05-19T21:25:02.375Z,9.07
2019-05-19T21:27:30.924Z,10.10
2019-05-19T21:29:59.423Z,9.80
2019-05-19T21:32:27.983Z,9.73
2019-05-19T21:34:56.561Z,10.10
2019-05-19T21:37:25.209Z,10.10
2019-05-19T21:39:53.781Z,11.00
2019-05-19T21:42:22.263Z,9.97
2019-05-19T21:44:50.834Z,10.23
2019-05-19T21:47:19.436Z,10.33
2019-05-19T21:49:48.124Z,10.70
2019-05-19T21:52:16.691Z,11.13
2019-05-19T21:54:45.258Z,11.20
2019-05-19T21:57:13.820Z,10.80
2019-05-19T21:59:42.401Z,10.93
2019-05-19T22:02:11.021Z,11.40
2019-05-19T22:04:40.049Z,11.40
2019-05-19T22:07:13.243Z,11.97
2019-05-19T22:09:41.826Z,11.60
2019-05-19T22:12:10.397Z,11.47
2019-05-19T22:14:38.978Z,11.53
2019-05-19T22:17:07.611Z,11.97
2019-05-19T22:19:36.195Z,12.07
2019-05-19T22:22:04.763Z,12.77
2019-05-19T22:24:33.332Z,12.00
2019-05-19T22:27:01.878Z,12.73
2019-05-19T22:29:30.438Z,11.77
2019-05-19T22:31:59.022Z,11.80
2019-05-19T22:34:27.582Z,11.43
2019-05-19T22:36:56.166Z,11.43
2019-05-19T22:39:24.726Z,11.07
2019-05-19T22:41:53.315Z,11.57
2019-05-19T22:44:21.875Z,11.53
2019-05-19T22:46:50.448Z,12.40
2019-05-19T22:49:19.069Z,11.03
2019-05-19T22:51:47.640Z,11.20
2019-05-19T22:54:16.280Z,11.13
2019-05-19T22:56:44.862Z,11.53
2019-05-19T22:59:19.588Z,10.97
2019-05-19T23:01:51.278Z,10.73
2019-05-19T23:04:13.906Z,11.47
2019-05-19T23:06:42.482Z,11.20
2019-05-19T23:09:11.065Z,11.03
2019-05-19T23:11:39.641Z,11.90
2019-05-19T23:14:08.210Z,11.27
2019-05-19T23:16:36.769Z,11.43
2019-05-19T23:19:05.320Z,10.43
2019-05-19T23:21:34.531Z,11.10
2019-05-19T23:24:03.180Z,10.60
2019-05-19T23:26:31.743Z,10.80
2019-05-19T23:29:00.309Z,10.10
2019-05-19T23:31:28.908Z,11.67
2019-05-19T23:33:57.471Z,10.80
2019-05-19T23:36:26.024Z,10.23
2019-05-19T23:38:54.517Z,11.23
2019-05-19T23:41:23.066Z,11.17
2019-05-19T23:43:51.672Z,11.60
2019-05-19T23:46:20.241Z,11.20
2019-05-19T23:48:48.822Z,11.07
2019-05-19T23:51:17.387Z,11.70
2019-05-19T23:53:45.963Z,11.23
2019-05-19T23:56:14.530Z,11.73
2019-05-19T23:58:43.112Z,12.30
